Terminal Aerodrome Forecast
Issued by NWS

Home | Current Version | Previous Version | Text Only | Print | Product List | Glossary On
Versions: 1 2 3 4 5 6 7 8 9 10 11 12 13 14 15 16 17 18 19 20 21 22 23 24 25 26 27 28
000
FTUS45 KGJT 290053 AAA
TAFEGE
TAF AMD
KEGE 290053Z 2901/2924 27015G22KT P6SM SCT110
     FM290200 22010KT P6SM FEW110
     FM290500 11004KT P6SM SKC
     FM291000 00000KT P6SM SKC
     FM291900 24010G20KT P6SM SCT250
      AMD LTD TO CLD VIS AND WIND 2906/2914=

USA.gov is the U.S. government's official web portal to all federal, state and local government web resources and services.